createdAt,value
2023-01-17T00:02:17.104Z,2.90
2023-01-17T00:05:02.979Z,2.90
2023-01-17T00:07:48.886Z,2.90
2023-01-17T00:10:25.936Z,3.00
2023-01-17T00:12:58.470Z,2.90
2023-01-17T00:15:28.004Z,2.90
2023-01-17T00:17:55.372Z,2.90
2023-01-17T00:20:46.872Z,2.90
2023-01-17T00:23:38.936Z,2.90
2023-01-17T00:26:14.834Z,2.90
2023-01-17T00:28:43.577Z,2.80
2023-01-17T00:31:12.293Z,2.90
2023-01-17T00:33:39.766Z,2.90
2023-01-17T00:36:07.996Z,2.90
2023-01-17T00:38:37.313Z,2.90
2023-01-17T00:41:10.033Z,2.80
2023-01-17T00:43:55.652Z,2.80
2023-01-17T00:46:41.545Z,2.80
2023-01-17T00:49:27.386Z,2.90
2023-01-17T00:52:13.176Z,2.90
2023-01-17T00:54:58.642Z,2.90
2023-01-17T00:57:44.277Z,2.90
2023-01-17T01:00:30.699Z,2.90
2023-01-17T01:03:16.625Z,2.80
2023-01-17T01:06:02.137Z,2.80
2023-01-17T01:08:49.067Z,2.80
2023-01-17T01:11:39.224Z,2.90
2023-01-17T01:14:28.574Z,2.90
2023-01-17T01:17:14.148Z,2.90
2023-01-17T01:19:59.875Z,2.90
2023-01-17T01:22:45.434Z,2.90
2023-01-17T01:25:31.000Z,2.90
2023-01-17T01:28:30.818Z,2.90
2023-01-17T01:31:21.698Z,2.90
2023-01-17T01:33:50.243Z,2.90
2023-01-17T01:36:17.438Z,2.90
2023-01-17T01:38:44.623Z,2.90
2023-01-17T01:41:11.963Z,2.90
2023-01-17T01:43:50.626Z,2.90
2023-01-17T01:46:31.940Z,2.90
2023-01-17T01:49:08.868Z,2.90
2023-01-17T01:51:41.517Z,2.70
2023-01-17T01:54:13.985Z,2.70
2023-01-17T01:56:41.492Z,2.60
2023-01-17T01:59:11.622Z,2.60
2023-01-17T02:01:38.880Z,2.50
2023-01-17T02:04:10.099Z,2.40
2023-01-17T02:06:41.772Z,2.30
2023-01-17T02:09:11.818Z,2.30
2023-01-17T02:11:40.009Z,2.20
2023-01-17T02:14:09.220Z,2.10
2023-01-17T02:17:40.944Z,2.10
2023-01-17T02:20:43.258Z,2.10
2023-01-17T02:24:06.476Z,2.10
2023-01-17T02:27:31.938Z,2.10
2023-01-17T02:33:43.557Z,2.00
2023-01-17T03:15:29.958Z,2.20
2023-01-17T03:18:02.422Z,2.10
2023-01-17T03:20:29.521Z,2.00
2023-01-17T03:22:56.624Z,1.90
2023-01-17T03:25:23.793Z,1.80
2023-01-17T03:27:50.899Z,1.80
2023-01-17T03:30:18.258Z,1.90
2023-01-17T03:32:45.313Z,1.90
2023-01-17T03:35:12.407Z,2.00
2023-01-17T03:37:39.528Z,1.90
2023-01-17T03:40:07.659Z,1.80
2023-01-17T03:42:34.691Z,1.70
2023-01-17T03:45:01.817Z,1.60
2023-01-17T03:47:28.840Z,1.60
2023-01-17T03:49:55.914Z,1.60
2023-01-17T03:52:23.009Z,1.70
2023-01-17T03:54:50.137Z,1.70
2023-01-17T03:57:17.188Z,1.70
2023-01-17T03:59:45.083Z,1.70
2023-01-17T04:02:12.332Z,1.70
2023-01-17T04:04:39.518Z,1.70
2023-01-17T04:07:06.544Z,1.70
2023-01-17T04:09:48.776Z,1.60
2023-01-17T04:12:15.883Z,1.60
2023-01-17T04:14:43.002Z,1.60
2023-01-17T04:17:13.395Z,1.60
2023-01-17T04:19:41.328Z,1.50
2023-01-17T04:22:08.516Z,1.50
2023-01-17T04:24:35.765Z,1.50
2023-01-17T04:27:04.840Z,1.50
2023-01-17T04:29:32.070Z,1.50
2023-01-17T04:31:59.240Z,1.50
2023-01-17T04:34:27.107Z,1.50
2023-01-17T04:36:54.212Z,1.50
2023-01-17T04:39:21.230Z,1.60
2023-01-17T04:41:48.397Z,1.50
2023-01-17T04:44:15.443Z,1.50
2023-01-17T04:46:42.521Z,1.50
2023-01-17T04:49:09.630Z,1.40
2023-01-17T04:51:36.764Z,1.30
2023-01-17T04:54:04.255Z,1.30
2023-01-17T04:56:31.532Z,1.30
2023-01-17T04:58:58.791Z,1.30
2023-01-17T05:01:26.069Z,1.30
2023-01-17T05:03:53.219Z,1.30
2023-01-17T05:06:20.324Z,1.20
2023-01-17T05:08:47.366Z,1.20
2023-01-17T05:11:14.696Z,1.20
2023-01-17T05:13:41.755Z,1.10
2023-01-17T05:16:08.896Z,1.10
2023-01-17T05:18:35.998Z,1.00
2023-01-17T05:21:04.135Z,0.90
2023-01-17T05:23:31.331Z,0.80
2023-01-17T05:25:58.698Z,0.70
2023-01-17T05:28:25.810Z,0.80
2023-01-17T05:30:52.916Z,0.80
2023-01-17T05:33:19.971Z,0.90
2023-01-17T05:35:47.035Z,0.90
2023-01-17T05:38:14.091Z,0.80
2023-01-17T05:40:41.280Z,0.90
2023-01-17T05:43:09.242Z,0.90
2023-01-17T05:45:36.769Z,0.80
2023-01-17T05:48:04.565Z,0.80
2023-01-17T05:50:34.321Z,0.70
2023-01-17T05:53:09.967Z,0.70
2023-01-17T05:55:37.869Z,0.80
2023-01-17T05:58:05.984Z,0.80
2023-01-17T06:00:33.439Z,0.90
2023-01-17T06:03:01.557Z,0.70
2023-01-17T06:05:29.391Z,0.80
2023-01-17T06:07:56.710Z,0.80
2023-01-17T06:10:24.433Z,0.70
2023-01-17T06:13:00.151Z,0.80
2023-01-17T06:15:27.428Z,0.90
2023-01-17T06:17:54.750Z,0.80
2023-01-17T06:20:21.979Z,0.90
2023-01-17T06:22:49.134Z,0.90
2023-01-17T06:25:16.446Z,0.70
2023-01-17T06:27:43.491Z,0.70
2023-01-17T06:30:11.515Z,0.70
2023-01-17T06:32:38.570Z,0.70
2023-01-17T06:35:06.123Z,0.70
2023-01-17T06:37:33.173Z,0.70
2023-01-17T06:40:00.365Z,0.80
2023-01-17T06:42:27.419Z,0.80
2023-01-17T06:44:54.500Z,0.80
2023-01-17T06:47:21.586Z,0.90
2023-01-17T06:49:48.666Z,0.90
2023-01-17T06:52:15.716Z,1.10
2023-01-17T06:54:42.743Z,1.10
2023-01-17T06:57:09.946Z,1.10
2023-01-17T06:59:37.078Z,1.10
2023-01-17T07:02:04.160Z,1.00
2023-01-17T07:04:32.484Z,1.00
2023-01-17T07:07:01.007Z,0.90
2023-01-17T07:09:28.344Z,0.80
2023-01-17T07:11:59.804Z,0.80
2023-01-17T07:14:27.137Z,0.90
2023-01-17T07:16:54.572Z,0.90
2023-01-17T07:19:22.100Z,0.90
2023-01-17T07:21:53.477Z,1.10
2023-01-17T07:24:21.600Z,1.00
2023-01-17T07:26:51.263Z,1.10
2023-01-17T07:29:19.135Z,1.10
2023-01-17T07:31:48.374Z,1.20
2023-01-17T07:34:15.638Z,1.10
2023-01-17T07:36:42.665Z,1.00
2023-01-17T07:39:10.269Z,1.20
2023-01-17T07:41:41.575Z,1.00
2023-01-17T07:44:10.659Z,1.10
2023-01-17T07:46:37.767Z,1.00
2023-01-17T07:49:04.928Z,1.10
2023-01-17T07:51:32.165Z,1.30
2023-01-17T07:53:59.295Z,1.40
2023-01-17T07:56:26.417Z,1.30
2023-01-17T07:58:53.673Z,1.30
2023-01-17T08:01:20.826Z,1.30
2023-01-17T08:03:51.706Z,1.30
2023-01-17T08:06:25.015Z,1.20
2023-01-17T08:08:58.985Z,1.20
2023-01-17T08:11:26.628Z,1.30
2023-01-17T08:14:00.294Z,1.30
2023-01-17T08:16:28.846Z,1.40
2023-01-17T08:18:56.222Z,1.40
2023-01-17T08:21:23.809Z,1.50
2023-01-17T08:23:51.907Z,1.50
2023-01-17T08:26:23.715Z,1.40
2023-01-17T08:28:57.251Z,1.50
2023-01-17T08:31:24.886Z,1.70
2023-01-17T08:33:51.963Z,1.70
2023-01-17T08:36:19.266Z,1.70
2023-01-17T08:38:46.334Z,1.60
2023-01-17T08:41:13.405Z,1.70
2023-01-17T08:43:40.512Z,1.70
2023-01-17T08:46:07.647Z,1.80
2023-01-17T08:48:34.713Z,1.80
2023-01-17T08:51:03.070Z,1.80
2023-01-17T08:53:30.203Z,1.80
2023-01-17T08:56:05.657Z,1.90
2023-01-17T08:58:33.349Z,1.80
2023-01-17T09:01:02.897Z,1.80
2023-01-17T09:03:30.899Z,1.80
2023-01-17T09:06:17.445Z,1.80
2023-01-17T09:08:48.045Z,1.70
2023-01-17T09:11:17.117Z,1.60
2023-01-17T09:13:44.787Z,1.60
2023-01-17T09:16:12.129Z,1.60
2023-01-17T09:18:39.345Z,1.70
2023-01-17T09:21:11.828Z,1.80
2023-01-17T09:23:39.078Z,1.80
2023-01-17T09:26:06.313Z,1.80
2023-01-17T09:28:41.022Z,1.90
2023-01-17T09:31:08.894Z,2.00
2023-01-17T09:33:36.621Z,1.90
2023-01-17T09:36:05.627Z,2.00
2023-01-17T09:38:33.172Z,2.10
2023-01-17T09:41:02.844Z,2.10
2023-01-17T09:43:44.086Z,2.00
2023-01-17T09:46:22.759Z,2.00
2023-01-17T09:48:54.019Z,1.90
2023-01-17T09:51:24.766Z,1.80
2023-01-17T09:53:53.261Z,1.70
2023-01-17T09:56:29.690Z,1.60
2023-01-17T09:59:32.695Z,1.70
2023-01-17T10:02:38.652Z,1.80
2023-01-17T10:05:47.269Z,1.80
2023-01-17T10:08:55.391Z,1.90
2023-01-17T10:12:00.544Z,2.00
2023-01-17T10:14:48.444Z,2.10
2023-01-17T10:17:53.658Z,2.00
2023-01-17T10:21:00.462Z,1.90
2023-01-17T10:24:16.532Z,2.00
2023-01-17T10:26:50.692Z,2.20
2023-01-17T10:29:21.261Z,2.20
2023-01-17T10:31:55.840Z,2.30
2023-01-17T10:34:29.680Z,2.30
2023-01-17T10:37:22.373Z,2.40
2023-01-17T10:39:52.182Z,2.60
2023-01-17T10:42:26.641Z,2.60
2023-01-17T10:45:04.274Z,2.70
2023-01-17T10:47:37.220Z,2.80
2023-01-17T10:50:05.469Z,2.80
2023-01-17T10:53:05.405Z,2.80
2023-01-17T10:55:51.527Z,2.80
2023-01-17T10:58:18.955Z,2.90
2023-01-17T11:01:00.524Z,2.90
2023-01-17T11:03:29.015Z,2.80
2023-01-17T11:06:19.522Z,2.80
2023-01-17T11:08:57.724Z,2.90
2023-01-17T11:11:31.990Z,2.80
2023-01-17T11:14:01.685Z,2.90
2023-01-17T11:16:31.523Z,3.00
2023-01-17T11:19:29.915Z,3.00
2023-01-17T11:22:04.928Z,3.00
2023-01-17T11:24:37.980Z,3.10
2023-01-17T11:27:06.887Z,3.20
2023-01-17T11:29:37.456Z,3.10
2023-01-17T11:32:32.130Z,3.10
2023-01-17T11:35:25.825Z,3.20
2023-01-17T11:38:05.416Z,3.10
2023-01-17T11:40:46.254Z,3.30
2023-01-17T11:43:23.069Z,3.30
2023-01-17T11:46:25.962Z,3.30
2023-01-17T11:48:56.419Z,3.10
2023-01-17T11:51:30.243Z,3.30
2023-01-17T11:54:25.821Z,3.40
2023-01-17T11:57:00.825Z,3.30
2023-01-17T11:59:37.615Z,3.20
2023-01-17T12:02:54.849Z,3.20
2023-01-17T12:06:02.056Z,3.30
2023-01-17T12:09:03.497Z,3.40
2023-01-17T12:12:20.372Z,3.40
2023-01-17T12:15:38.401Z,3.40
2023-01-17T12:18:50.746Z,3.40
2023-01-17T12:21:28.536Z,3.40
2023-01-17T12:24:35.672Z,3.50
2023-01-17T12:27:30.266Z,3.50
2023-01-17T12:30:54.436Z,3.60
2023-01-17T12:33:57.747Z,3.60
2023-01-17T12:36:39.017Z,3.40
2023-01-17T12:39:10.257Z,3.50
2023-01-17T12:41:56.512Z,3.50
2023-01-17T12:44:40.125Z,3.40
2023-01-17T12:47:07.569Z,3.40
2023-01-17T12:50:13.515Z,3.30
2023-01-17T12:53:23.982Z,3.30
2023-01-17T12:56:25.445Z,3.30
2023-01-17T12:58:58.612Z,3.20
2023-01-17T13:01:40.193Z,3.20
2023-01-17T13:04:29.463Z,3.20
2023-01-17T13:07:23.108Z,3.20
2023-01-17T13:10:23.448Z,3.20
2023-01-17T13:12:51.857Z,3.20
2023-01-17T13:15:23.035Z,3.20
2023-01-17T13:18:14.905Z,3.20
2023-01-17T13:21:19.327Z,3.20
2023-01-17T13:24:21.173Z,3.20
2023-01-17T13:27:34.284Z,3.20
2023-01-17T13:30:19.525Z,3.10
2023-01-17T13:33:22.650Z,3.00
2023-01-17T13:36:44.678Z,3.00
2023-01-17T13:40:10.324Z,3.00
2023-01-17T13:43:01.975Z,2.90
2023-01-17T13:45:34.609Z,2.80
2023-01-17T13:48:31.889Z,2.60
2023-01-17T13:51:06.781Z,2.50
2023-01-17T13:53:51.528Z,2.40
2023-01-17T13:56:29.764Z,2.30
2023-01-17T13:59:00.598Z,2.30
2023-01-17T14:01:54.043Z,2.30
2023-01-17T14:04:22.030Z,2.10
2023-01-17T14:06:55.571Z,2.20
2023-01-17T14:09:30.468Z,2.10
2023-01-17T14:12:31.496Z,2.20
2023-01-17T14:15:02.451Z,2.00
2023-01-17T14:17:43.560Z,1.90
2023-01-17T14:20:42.243Z,1.80
2023-01-17T14:23:32.906Z,1.80
2023-01-17T14:26:13.088Z,1.90
2023-01-17T14:28:40.235Z,1.90
2023-01-17T14:31:10.790Z,2.00
2023-01-17T14:33:40.392Z,2.00
2023-01-17T14:36:15.345Z,1.90
2023-01-17T14:38:44.571Z,1.90
2023-01-17T14:41:19.345Z,2.00
2023-01-17T14:43:48.382Z,2.20
2023-01-17T14:46:34.637Z,2.40
2023-01-17T14:49:07.854Z,2.50
2023-01-17T14:51:35.571Z,2.60
2023-01-17T14:54:05.565Z,2.50
2023-01-17T14:56:33.496Z,2.30
2023-01-17T14:59:26.917Z,2.20
2023-01-17T15:02:07.545Z,2.10
2023-01-17T15:04:39.772Z,2.30
2023-01-17T15:07:07.795Z,2.30
2023-01-17T15:09:38.634Z,2.30
2023-01-17T15:12:10.468Z,2.30
2023-01-17T15:14:41.794Z,2.10
2023-01-17T15:17:19.963Z,2.10
2023-01-17T15:19:53.711Z,2.00
2023-01-17T15:22:21.146Z,1.90
2023-01-17T15:24:49.535Z,2.00
2023-01-17T15:27:17.245Z,1.90
2023-01-17T15:29:48.069Z,2.00
2023-01-17T15:32:28.067Z,2.10
2023-01-17T15:34:55.383Z,1.90
2023-01-17T15:37:32.726Z,2.00
2023-01-17T15:40:17.285Z,2.00
2023-01-17T15:42:56.775Z,2.00
2023-01-17T15:45:31.507Z,2.00
2023-01-17T15:48:20.363Z,1.90
2023-01-17T15:50:47.667Z,2.00
2023-01-17T15:53:30.011Z,2.00
2023-01-17T15:55:57.788Z,1.90
2023-01-17T15:58:30.259Z,1.90
2023-01-17T16:00:57.742Z,1.90
2023-01-17T16:03:33.617Z,1.90
2023-01-17T16:06:02.992Z,1.90
2023-01-17T16:08:40.183Z,1.90
2023-01-17T16:11:10.792Z,1.80
2023-01-17T16:13:39.299Z,1.80
2023-01-17T16:16:18.625Z,1.80
2023-01-17T16:18:47.060Z,1.80
2023-01-17T16:21:29.283Z,1.80
2023-01-17T16:23:57.071Z,1.80
2023-01-17T16:26:24.267Z,1.80
2023-01-17T16:28:51.814Z,1.80
2023-01-17T16:31:19.169Z,1.90
2023-01-17T16:33:49.434Z,1.90
2023-01-17T16:36:16.926Z,1.80
2023-01-17T16:38:44.934Z,1.80
2023-01-17T16:41:12.208Z,1.70
2023-01-17T16:43:39.403Z,1.80
2023-01-17T16:46:06.958Z,1.80
2023-01-17T16:48:34.110Z,1.60
2023-01-17T16:51:06.706Z,1.60
2023-01-17T16:53:33.865Z,1.60
2023-01-17T16:56:10.024Z,1.70
2023-01-17T16:58:37.647Z,1.70
2023-01-17T17:01:15.571Z,1.80
2023-01-17T17:03:44.137Z,1.80
2023-01-17T17:06:12.042Z,1.80
2023-01-17T17:08:39.918Z,1.70
2023-01-17T17:11:15.053Z,1.80
2023-01-17T17:13:44.585Z,1.80
2023-01-17T17:16:32.982Z,1.80
2023-01-17T17:19:02.961Z,1.80
2023-01-17T17:21:31.854Z,1.80
2023-01-17T17:24:00.600Z,1.70
2023-01-17T17:26:31.185Z,1.70
2023-01-17T17:28:58.676Z,1.80
2023-01-17T17:31:26.100Z,1.80
2023-01-17T17:33:53.488Z,1.80
2023-01-17T17:36:20.616Z,1.80
2023-01-17T17:38:53.921Z,1.80
2023-01-17T17:41:25.972Z,1.80
2023-01-17T17:43:53.609Z,1.80
2023-01-17T17:46:22.487Z,1.80
2023-01-17T17:48:49.681Z,1.80
2023-01-17T17:51:34.706Z,1.80
2023-01-17T17:54:04.992Z,1.80
2023-01-17T17:56:33.204Z,1.80
2023-01-17T17:59:01.741Z,1.80
2023-01-17T18:01:29.543Z,1.80
2023-01-17T18:04:00.765Z,1.60
2023-01-17T18:06:27.988Z,1.70
2023-01-17T18:08:55.111Z,1.70
2023-01-17T18:11:27.085Z,1.70
2023-01-17T18:13:57.271Z,1.70
2023-01-17T18:16:27.075Z,1.70
2023-01-17T18:18:56.700Z,1.70
2023-01-17T18:21:29.927Z,1.70
2023-01-17T18:24:02.674Z,1.70
2023-01-17T18:26:33.249Z,1.70
2023-01-17T18:29:01.513Z,1.80
2023-01-17T18:31:30.262Z,1.80
2023-01-17T18:34:00.253Z,1.70
2023-01-17T18:36:28.940Z,1.70
2023-01-17T18:38:56.843Z,1.70
2023-01-17T18:41:29.518Z,1.70
2023-01-17T18:43:57.266Z,1.60
2023-01-17T18:46:28.498Z,1.50
2023-01-17T18:48:57.204Z,1.40
2023-01-17T18:51:24.738Z,1.40
2023-01-17T18:53:53.103Z,1.50
2023-01-17T18:56:22.208Z,1.60
2023-01-17T18:58:50.375Z,1.70
2023-01-17T19:01:20.742Z,1.70
2023-01-17T19:03:49.853Z,1.70
2023-01-17T19:06:23.558Z,1.70
2023-01-17T19:08:51.950Z,1.80
2023-01-17T19:11:20.435Z,1.80
2023-01-17T19:13:49.098Z,1.80
2023-01-17T19:16:25.542Z,1.80
2023-01-17T19:18:52.892Z,1.90
2023-01-17T19:21:22.627Z,1.90
2023-01-17T19:23:50.709Z,1.90
2023-01-17T19:26:20.460Z,1.90
2023-01-17T19:28:48.728Z,2.00
2023-01-17T19:31:18.755Z,1.90
2023-01-17T19:33:47.111Z,2.00
2023-01-17T19:36:18.687Z,2.00
2023-01-17T19:39:02.964Z,2.00
2023-01-17T19:41:30.833Z,2.10
2023-01-17T19:44:00.365Z,2.10
2023-01-17T19:46:27.901Z,2.00
2023-01-17T19:48:56.699Z,2.10
2023-01-17T19:51:24.972Z,2.00
2023-01-17T19:53:53.660Z,2.10
2023-01-17T19:56:26.076Z,2.10
2023-01-17T19:58:53.745Z,2.00
2023-01-17T20:01:28.172Z,1.90
2023-01-17T20:03:57.891Z,1.90
2023-01-17T20:06:29.055Z,1.80
2023-01-17T20:08:56.447Z,1.80
2023-01-17T20:11:25.486Z,1.70
2023-01-17T20:13:57.754Z,1.80
2023-01-17T20:16:26.756Z,1.80
2023-01-17T20:18:54.109Z,1.80
2023-01-17T20:21:26.446Z,1.80
2023-01-17T20:23:54.627Z,1.80
2023-01-17T20:26:24.192Z,1.80
2023-01-17T20:28:53.376Z,1.80
2023-01-17T20:31:24.848Z,1.80
2023-01-17T20:33:54.244Z,1.90
2023-01-17T20:36:24.157Z,1.80
2023-01-17T20:38:51.618Z,1.90
2023-01-17T20:41:52.179Z,1.80
2023-01-17T20:44:19.707Z,1.90
2023-01-17T20:46:48.267Z,1.90
2023-01-17T20:49:18.963Z,1.80
2023-01-17T20:51:46.732Z,1.80
2023-01-17T20:54:16.123Z,1.80
2023-01-17T20:56:43.743Z,1.80
2023-01-17T20:59:19.649Z,1.80
2023-01-17T21:01:46.991Z,1.90
2023-01-17T21:04:15.031Z,1.80
2023-01-17T21:06:43.863Z,1.70
2023-01-17T21:09:14.262Z,1.70
2023-01-17T21:11:41.585Z,1.70
2023-01-17T21:14:09.050Z,1.70
2023-01-17T21:16:36.854Z,1.70
2023-01-17T21:19:04.209Z,1.70
2023-01-17T21:21:31.498Z,1.80
2023-01-17T21:23:59.570Z,1.70
2023-01-17T21:26:28.741Z,1.80
2023-01-17T21:28:58.079Z,1.70
2023-01-17T21:31:27.960Z,1.70
2023-01-17T21:34:00.447Z,1.70
2023-01-17T21:36:33.223Z,1.80
2023-01-17T21:39:04.857Z,1.80
2023-01-17T21:41:35.454Z,1.80
2023-01-17T21:44:05.305Z,1.80
2023-01-17T21:46:32.365Z,1.90
2023-01-17T21:48:59.458Z,1.90
2023-01-17T21:51:46.413Z,1.90
2023-01-17T21:54:13.631Z,1.90
2023-01-17T21:56:59.408Z,1.90
2023-01-17T21:59:26.576Z,2.00
2023-01-17T22:01:53.677Z,2.00
2023-01-17T22:04:20.794Z,2.00
2023-01-17T22:06:47.872Z,2.10
2023-01-17T22:09:15.208Z,2.10
2023-01-17T22:11:42.303Z,2.10
2023-01-17T22:14:09.532Z,2.00
2023-01-17T22:16:36.569Z,1.90
2023-01-17T22:19:03.705Z,1.80
2023-01-17T22:21:30.830Z,1.80
2023-01-17T22:24:00.031Z,1.80
2023-01-17T22:26:29.612Z,1.90
2023-01-17T22:28:59.788Z,1.80
2023-01-17T22:31:28.265Z,1.80
2023-01-17T22:34:02.241Z,1.80
2023-01-17T22:36:31.848Z,1.80
2023-01-17T22:38:59.149Z,1.70
2023-01-17T22:41:29.885Z,1.70
2023-01-17T22:43:59.566Z,1.80
2023-01-17T22:46:30.116Z,1.80
2023-01-17T22:48:57.974Z,1.80
2023-01-17T22:51:26.944Z,1.80
2023-01-17T22:53:56.530Z,1.80
2023-01-17T22:56:26.741Z,1.80
2023-01-17T22:58:53.939Z,1.80
2023-01-17T23:01:27.074Z,1.80
2023-01-17T23:04:05.124Z,1.70
2023-01-17T23:06:37.462Z,1.60
2023-01-17T23:09:10.789Z,1.50
2023-01-17T23:11:43.473Z,1.50
2023-01-17T23:14:22.630Z,1.50
2023-01-17T23:17:20.189Z,1.50
2023-01-17T23:19:52.620Z,1.50
2023-01-17T23:22:29.124Z,1.60
2023-01-17T23:24:58.518Z,1.60
2023-01-17T23:27:52.955Z,1.60
2023-01-17T23:30:37.599Z,1.70
2023-01-17T23:33:07.442Z,1.70
2023-01-17T23:35:42.062Z,1.80
2023-01-17T23:38:28.600Z,1.80
2023-01-17T23:41:22.774Z,1.80
2023-01-17T23:43:54.735Z,1.80
2023-01-17T23:46:24.075Z,1.80
2023-01-17T23:48:51.571Z,1.80
2023-01-17T23:51:18.760Z,1.80
2023-01-17T23:53:45.907Z,1.80
2023-01-17T23:56:23.093Z,1.80
2023-01-17T23:58:50.440Z,1.80
